createdAt,value
2022-07-27T00:00:17.290Z,4.90
2022-07-27T00:01:19.804Z,4.60
2022-07-27T00:02:22.152Z,3.50
2022-07-27T00:03:24.376Z,4.50
2022-07-27T00:04:26.821Z,4.20
2022-07-27T00:05:29.469Z,4.73
2022-07-27T00:06:32.834Z,5.50
2022-07-27T00:07:35.559Z,5.00
2022-07-27T00:08:39.378Z,5.20
2022-07-27T00:09:41.657Z,6.00
2022-07-27T00:10:44.296Z,4.30
2022-07-27T00:11:46.747Z,5.40
2022-07-27T00:12:49.031Z,3.90
2022-07-27T00:13:51.781Z,3.40
2022-07-27T00:14:54.148Z,5.10
2022-07-27T00:15:56.406Z,5.00
2022-07-27T00:17:00.118Z,5.36
2022-07-27T00:18:02.752Z,5.10
2022-07-27T00:19:09.330Z,5.60
2022-07-27T00:20:10.728Z,3.50
2022-07-27T00:21:13.441Z,5.20
2022-07-27T00:22:15.785Z,5.10
2022-07-27T00:23:18.103Z,3.40
2022-07-27T00:24:20.285Z,4.20
2022-07-27T00:25:26.788Z,4.80
2022-07-27T00:26:30.990Z,5.40
2022-07-27T00:27:33.650Z,2.70
2022-07-27T00:28:35.980Z,5.18
2022-07-27T00:29:38.967Z,3.90
2022-07-27T00:30:41.667Z,5.60
2022-07-27T00:31:43.974Z,5.10
2022-07-27T00:32:46.484Z,5.10
2022-07-27T00:33:48.749Z,5.40
2022-07-27T00:34:51.108Z,5.40
2022-07-27T00:35:53.298Z,4.40
2022-07-27T00:36:56.861Z,4.60
2022-07-27T00:37:59.191Z,4.60
2022-07-27T00:39:02.406Z,4.80
2022-07-27T00:40:06.057Z,6.00
2022-07-27T00:41:08.464Z,4.80
2022-07-27T00:42:10.927Z,5.00
2022-07-27T00:43:14.105Z,5.40
2022-07-27T00:44:27.741Z,4.90
2022-07-27T00:45:30.538Z,4.90
2022-07-27T00:46:34.963Z,3.10
2022-07-27T00:47:37.261Z,4.30
2022-07-27T00:48:40.356Z,5.50
2022-07-27T00:49:43.022Z,3.40
2022-07-27T00:50:46.409Z,4.50
2022-07-27T00:51:49.295Z,6.00
2022-07-27T00:52:52.467Z,3.10
2022-07-27T00:53:55.009Z,5.90
2022-07-27T00:54:58.043Z,3.82
2022-07-27T00:56:00.280Z,5.45
2022-07-27T00:57:03.128Z,4.90
2022-07-27T00:58:06.748Z,4.91
2022-07-27T00:59:10.779Z,5.20
2022-07-27T01:00:16.802Z,5.40
2022-07-27T01:01:19.366Z,5.60
2022-07-27T01:02:23.098Z,5.80
2022-07-27T01:03:29.367Z,6.00
2022-07-27T01:04:30.223Z,5.10
2022-07-27T01:05:36.703Z,4.80
2022-07-27T01:06:39.115Z,4.60
2022-07-27T01:07:41.255Z,5.20
2022-07-27T01:08:43.666Z,5.60
2022-07-27T01:09:46.307Z,3.36
2022-07-27T01:10:49.003Z,6.10
2022-07-27T01:11:53.004Z,5.20
2022-07-27T01:12:56.288Z,5.80
2022-07-27T01:13:58.643Z,6.00
2022-07-27T01:15:01.012Z,6.80
2022-07-27T01:16:05.525Z,6.40
2022-07-27T01:17:08.606Z,5.30
2022-07-27T01:18:12.317Z,5.64
2022-07-27T01:19:15.059Z,7.60
2022-07-27T01:20:19.226Z,6.70
2022-07-27T01:21:23.159Z,6.90
2022-07-27T01:22:25.755Z,6.00
2022-07-27T01:23:28.145Z,6.50
2022-07-27T01:24:30.862Z,6.70
2022-07-27T01:25:34.960Z,6.50
2022-07-27T01:26:37.838Z,5.50
2022-07-27T01:27:40.214Z,6.27
2022-07-27T01:28:43.230Z,6.90
2022-07-27T01:29:46.973Z,5.70
2022-07-27T01:30:49.418Z,7.40
2022-07-27T01:31:52.727Z,6.60
2022-07-27T01:33:05.453Z,3.80
2022-07-27T01:34:07.889Z,6.80
2022-07-27T01:35:11.788Z,7.10
2022-07-27T01:36:14.617Z,6.20
2022-07-27T01:37:17.069Z,5.50
2022-07-27T01:38:19.509Z,6.80
2022-07-27T01:39:21.768Z,5.30
2022-07-27T01:40:24.558Z,6.36
2022-07-27T01:41:27.606Z,6.40
2022-07-27T01:42:31.194Z,7.50
2022-07-27T01:43:33.734Z,6.20
2022-07-27T01:44:37.968Z,6.50
2022-07-27T01:45:41.967Z,6.50
2022-07-27T01:46:44.370Z,6.00
2022-07-27T01:47:47.197Z,7.10
2022-07-27T01:48:49.495Z,6.60
2022-07-27T01:49:52.644Z,4.50
2022-07-27T01:50:55.260Z,6.70
2022-07-27T01:51:57.773Z,6.70
2022-07-27T01:53:00.247Z,7.40
2022-07-27T01:54:03.672Z,7.20
2022-07-27T01:55:08.138Z,6.40
2022-07-27T01:56:12.596Z,6.10
2022-07-27T01:57:15.218Z,6.64
2022-07-27T01:58:17.787Z,6.40
2022-07-27T01:59:21.378Z,5.70
2022-07-27T02:00:26.399Z,3.30
2022-07-27T02:01:30.362Z,6.20
2022-07-27T02:02:33.380Z,6.50
2022-07-27T02:03:35.725Z,6.30
2022-07-27T02:04:38.594Z,6.27
2022-07-27T02:05:41.222Z,5.70
2022-07-27T02:06:43.640Z,7.70
2022-07-27T02:07:45.864Z,4.30
2022-07-27T02:08:48.774Z,6.45
2022-07-27T02:09:51.132Z,6.50
2022-07-27T02:10:54.119Z,5.91
2022-07-27T02:11:57.308Z,6.20
2022-07-27T02:12:59.750Z,4.30
2022-07-27T02:14:02.789Z,7.20
2022-07-27T02:16:23.283Z,6.90
2022-07-27T02:17:29.149Z,7.10
2022-07-27T02:18:36.311Z,6.20
2022-07-27T02:19:38.101Z,6.80
2022-07-27T02:20:40.764Z,6.45
2022-07-27T02:21:42.916Z,7.30
2022-07-27T02:22:45.593Z,6.00
2022-07-27T02:23:48.983Z,7.90
2022-07-27T02:24:51.307Z,7.20
2022-07-27T02:25:54.533Z,6.50
2022-07-27T02:26:58.517Z,7.60
2022-07-27T02:28:01.144Z,6.50
2022-07-27T02:29:03.544Z,6.55
2022-07-27T02:30:08.579Z,7.50
2022-07-27T02:31:10.780Z,7.10
2022-07-27T02:32:13.200Z,7.70
2022-07-27T02:33:15.406Z,8.30
2022-07-27T02:34:18.666Z,8.00
2022-07-27T02:35:21.249Z,7.80
2022-07-27T02:36:25.759Z,9.30
2022-07-27T02:37:28.017Z,7.80
2022-07-27T02:38:30.301Z,7.60
2022-07-27T02:39:33.052Z,9.70
2022-07-27T02:40:36.199Z,8.20
2022-07-27T02:41:39.500Z,8.60
2022-07-27T02:42:42.167Z,8.50
2022-07-27T02:43:44.494Z,8.60
2022-07-27T02:44:46.774Z,8.10
2022-07-27T02:45:49.156Z,8.80
2022-07-27T02:46:51.647Z,9.80
2022-07-27T02:47:55.388Z,8.60
2022-07-27T02:48:58.043Z,8.50
2022-07-27T02:50:01.786Z,9.10
2022-07-27T02:51:04.577Z,8.70
2022-07-27T02:52:07.091Z,9.09
2022-07-27T02:53:09.557Z,8.20
2022-07-27T02:54:12.017Z,7.70
2022-07-27T02:55:15.305Z,9.20
2022-07-27T02:56:18.074Z,8.40
2022-07-27T02:57:21.361Z,8.90
2022-07-27T02:58:23.842Z,8.50
2022-07-27T02:59:26.494Z,6.30
2022-07-27T03:00:30.801Z,8.50
2022-07-27T03:01:35.150Z,9.30
2022-07-27T03:02:39.421Z,8.10
2022-07-27T03:03:41.883Z,8.30
2022-07-27T03:04:44.287Z,8.30
2022-07-27T03:05:46.909Z,8.90
2022-07-27T03:06:50.298Z,9.50
2022-07-27T03:07:52.666Z,7.20
2022-07-27T03:08:56.067Z,8.60
2022-07-27T03:09:59.137Z,6.90
2022-07-27T03:11:01.692Z,7.90
2022-07-27T03:12:04.134Z,7.70
2022-07-27T03:13:06.518Z,9.40
2022-07-27T03:14:08.882Z,9.70
2022-07-27T03:15:11.288Z,7.00
2022-07-27T03:16:14.704Z,7.50
2022-07-27T03:17:17.401Z,7.27
2022-07-27T03:18:20.670Z,7.20
2022-07-27T03:19:28.277Z,8.70
2022-07-27T03:20:29.168Z,8.70
2022-07-27T03:21:31.532Z,8.00
2022-07-27T03:22:34.014Z,7.90
2022-07-27T03:23:37.814Z,7.40
2022-07-27T03:24:40.177Z,8.80
2022-07-27T03:25:42.513Z,8.80
2022-07-27T03:26:44.889Z,7.40
2022-07-27T03:27:47.469Z,7.80
2022-07-27T03:28:49.728Z,7.30
2022-07-27T03:29:52.090Z,7.10
2022-07-27T03:30:54.516Z,7.80
2022-07-27T03:31:56.938Z,8.50
2022-07-27T03:32:59.178Z,7.90
2022-07-27T03:34:02.321Z,8.10
2022-07-27T03:35:05.693Z,9.80
2022-07-27T03:36:09.453Z,14.90
2022-07-27T03:37:11.723Z,20.20
2022-07-27T03:38:14.061Z,22.00
2022-07-27T03:39:16.525Z,25.80
2022-07-27T03:40:19.913Z,28.90
2022-07-27T03:41:22.613Z,26.20
2022-07-27T03:42:25.046Z,24.20
2022-07-27T03:43:29.087Z,25.20
2022-07-27T03:44:31.623Z,23.50
2022-07-27T03:45:34.172Z,22.50
2022-07-27T03:46:36.644Z,22.90
2022-07-27T03:47:40.336Z,21.40
2022-07-27T03:48:42.872Z,22.20
2022-07-27T03:49:45.749Z,16.70
2022-07-27T03:50:48.427Z,19.40
2022-07-27T03:51:50.721Z,19.40
2022-07-27T03:52:53.348Z,19.00
2022-07-27T03:53:56.357Z,19.64
2022-07-27T03:54:59.983Z,19.00
2022-07-27T03:56:02.820Z,19.60
2022-07-27T03:57:05.590Z,18.09
2022-07-27T03:58:07.961Z,17.60
2022-07-27T03:59:10.992Z,16.90
2022-07-27T04:00:16.055Z,19.40
2022-07-27T04:01:19.772Z,17.80
2022-07-27T04:02:22.651Z,16.90
2022-07-27T04:03:25.223Z,16.60
2022-07-27T04:04:27.755Z,18.40
2022-07-27T04:05:30.215Z,16.00
2022-07-27T04:06:33.291Z,13.80
2022-07-27T04:07:35.580Z,15.50
2022-07-27T04:08:38.069Z,14.70
2022-07-27T04:09:42.426Z,11.40
2022-07-27T04:10:48.277Z,15.10
2022-07-27T04:11:51.623Z,15.30
2022-07-27T04:12:54.431Z,14.50
2022-07-27T04:13:56.803Z,14.20
2022-07-27T04:14:59.773Z,12.70
2022-07-27T04:16:02.150Z,14.50
2022-07-27T04:17:04.493Z,15.60
2022-07-27T04:18:06.700Z,15.10
2022-07-27T04:19:09.084Z,15.60
2022-07-27T04:20:12.777Z,8.40
2022-07-27T04:21:17.328Z,14.50
2022-07-27T04:22:19.712Z,13.30
2022-07-27T04:23:22.185Z,13.40
2022-07-27T04:24:24.519Z,13.10
2022-07-27T04:25:28.718Z,14.00
2022-07-27T04:26:33.739Z,11.80
2022-07-27T04:27:36.311Z,13.80
2022-07-27T04:28:38.865Z,12.60
2022-07-27T04:29:41.641Z,13.50
2022-07-27T04:30:44.513Z,13.70
2022-07-27T04:31:46.979Z,13.60
2022-07-27T04:32:49.447Z,13.00
2022-07-27T04:33:52.632Z,11.40
2022-07-27T04:34:54.960Z,12.60
2022-07-27T04:35:57.130Z,13.50
2022-07-27T04:36:59.605Z,10.30
2022-07-27T04:38:03.205Z,13.00
2022-07-27T04:39:05.540Z,12.30
2022-07-27T04:40:10.661Z,11.70
2022-07-27T04:41:13.869Z,13.10
2022-07-27T04:42:16.436Z,11.50
2022-07-27T04:43:18.665Z,11.80
2022-07-27T04:44:21.163Z,11.50
2022-07-27T04:45:24.136Z,11.00
2022-07-27T04:46:29.971Z,11.70
2022-07-27T04:47:32.655Z,10.40
2022-07-27T04:48:35.288Z,11.10
2022-07-27T04:49:37.695Z,11.00
2022-07-27T04:50:44.045Z,10.60
2022-07-27T04:51:47.069Z,11.30
2022-07-27T04:52:49.585Z,10.40
2022-07-27T04:53:53.383Z,10.70
2022-07-27T04:54:56.503Z,10.60
2022-07-27T04:55:59.523Z,9.30
2022-07-27T04:57:02.003Z,10.10
2022-07-27T04:58:05.324Z,9.10
2022-07-27T04:59:08.335Z,10.18
2022-07-27T05:00:13.076Z,9.30
2022-07-27T05:01:15.399Z,6.60
2022-07-27T05:02:17.905Z,8.60
2022-07-27T05:03:20.267Z,9.50
2022-07-27T05:04:22.895Z,10.40
2022-07-27T05:05:25.913Z,8.09
2022-07-27T05:06:29.404Z,8.20
2022-07-27T05:07:31.869Z,9.09
2022-07-27T05:08:34.943Z,9.10
2022-07-27T05:09:38.478Z,9.50
2022-07-27T05:10:40.900Z,9.20
2022-07-27T05:11:50.697Z,7.70
2022-07-27T05:12:48.469Z,8.60
2022-07-27T05:13:50.894Z,8.90
2022-07-27T05:14:53.060Z,9.60
2022-07-27T05:15:56.091Z,8.40
2022-07-27T05:17:00.068Z,8.90
2022-07-27T05:18:02.978Z,7.90
2022-07-27T05:19:06.048Z,7.30
2022-07-27T05:20:10.962Z,7.90
2022-07-27T05:21:13.293Z,6.50
2022-07-27T05:22:16.197Z,7.70
2022-07-27T05:23:20.334Z,7.80
2022-07-27T05:24:22.651Z,7.40
2022-07-27T05:25:25.020Z,6.70
2022-07-27T05:26:27.506Z,8.70
2022-07-27T05:27:29.855Z,7.70
2022-07-27T05:28:32.624Z,9.00
2022-07-27T05:29:34.887Z,7.60
2022-07-27T05:30:39.396Z,7.60
2022-07-27T05:31:41.829Z,7.70
2022-07-27T05:32:45.390Z,6.50
2022-07-27T05:33:49.770Z,7.90
2022-07-27T05:34:52.137Z,5.90
2022-07-27T05:35:55.305Z,7.30
2022-07-27T05:36:58.418Z,8.10
2022-07-27T05:38:00.950Z,7.36
2022-07-27T05:39:03.456Z,7.40
2022-07-27T05:40:07.826Z,3.00
2022-07-27T05:41:10.494Z,7.50
2022-07-27T05:42:13.773Z,8.30
2022-07-27T05:43:16.168Z,7.90
2022-07-27T05:44:19.615Z,8.30
2022-07-27T05:45:22.534Z,8.00
2022-07-27T05:46:32.469Z,7.80
2022-07-27T05:47:30.902Z,7.60
2022-07-27T05:48:35.195Z,6.90
2022-07-27T05:49:37.479Z,7.20
2022-07-27T05:50:39.984Z,5.80
2022-07-27T05:51:42.415Z,8.20
2022-07-27T05:52:45.682Z,7.30
2022-07-27T05:53:48.161Z,6.90
2022-07-27T05:54:50.912Z,7.45
2022-07-27T05:55:59.434Z,6.40
2022-07-27T05:56:58.723Z,7.10
2022-07-27T05:58:01.004Z,7.40
2022-07-27T05:59:06.958Z,5.40
2022-07-27T06:00:12.426Z,4.60
2022-07-27T06:01:15.455Z,6.60
2022-07-27T06:02:19.074Z,7.30
2022-07-27T06:03:22.160Z,7.40
2022-07-27T06:04:24.881Z,7.60
2022-07-27T06:05:27.346Z,7.30
2022-07-27T06:06:30.570Z,5.30
2022-07-27T06:07:34.931Z,5.00
2022-07-27T06:08:37.404Z,7.40
2022-07-27T06:09:39.970Z,6.60
2022-07-27T06:10:43.489Z,12.30
2022-07-27T06:11:47.563Z,15.00
2022-07-27T06:12:50.274Z,15.20
2022-07-27T06:13:52.693Z,11.30
2022-07-27T06:14:55.055Z,9.40
2022-07-27T06:15:58.884Z,7.10
2022-07-27T06:17:02.265Z,6.00
2022-07-27T06:18:06.081Z,7.90
2022-07-27T06:19:08.838Z,6.80
2022-07-27T06:20:13.421Z,6.90
2022-07-27T06:21:16.389Z,8.27
2022-07-27T06:22:20.499Z,6.90
2022-07-27T06:23:22.866Z,7.70
2022-07-27T06:24:26.657Z,7.00
2022-07-27T06:25:35.722Z,7.60
2022-07-27T06:26:38.564Z,4.80
2022-07-27T06:27:40.848Z,7.30
2022-07-27T06:28:43.114Z,6.70
2022-07-27T06:29:45.533Z,7.00
2022-07-27T06:30:47.853Z,8.20
2022-07-27T06:31:50.157Z,6.60
2022-07-27T06:32:53.461Z,6.80
2022-07-27T06:33:55.922Z,6.70
2022-07-27T06:35:00.725Z,6.50
2022-07-27T06:36:04.108Z,7.20
2022-07-27T06:37:06.922Z,4.70
2022-07-27T06:38:09.857Z,4.80
2022-07-27T06:39:12.486Z,4.80
2022-07-27T06:40:16.223Z,4.90
2022-07-27T06:41:20.832Z,5.45
2022-07-27T06:42:23.137Z,4.60
2022-07-27T06:44:40.372Z,5.60
2022-07-27T06:45:42.672Z,4.50
2022-07-27T06:46:46.839Z,4.30
2022-07-27T06:47:50.213Z,3.50
2022-07-27T06:48:52.855Z,5.30
2022-07-27T06:49:55.206Z,5.50
2022-07-27T06:50:57.558Z,6.70
2022-07-27T06:52:00.025Z,6.10
2022-07-27T06:53:02.605Z,5.00
2022-07-27T06:54:05.768Z,6.00
2022-07-27T06:55:08.798Z,5.90
2022-07-27T06:56:11.713Z,5.80
2022-07-27T06:57:14.913Z,4.80
2022-07-27T06:58:18.286Z,5.10
2022-07-27T06:59:20.641Z,6.00
2022-07-27T07:00:24.787Z,5.90
2022-07-27T07:01:27.257Z,6.40
2022-07-27T07:02:29.823Z,5.30
2022-07-27T07:03:32.150Z,6.30
2022-07-27T07:04:35.566Z,6.30
2022-07-27T07:05:43.626Z,5.10
2022-07-27T07:06:46.809Z,5.90
2022-07-27T07:07:49.477Z,6.20
2022-07-27T07:08:51.944Z,6.30
2022-07-27T07:09:54.183Z,4.90
2022-07-27T07:10:56.830Z,5.80
2022-07-27T07:11:59.833Z,5.40
2022-07-27T07:13:05.796Z,4.80
2022-07-27T07:14:08.197Z,4.80
2022-07-27T07:15:10.716Z,5.10
2022-07-27T07:16:14.088Z,5.30
2022-07-27T07:17:16.607Z,6.60
2022-07-27T07:18:20.070Z,6.10
2022-07-27T07:19:23.775Z,6.00
2022-07-27T07:20:27.963Z,5.20
2022-07-27T07:21:30.983Z,6.70
2022-07-27T07:22:33.918Z,4.90
2022-07-27T07:23:36.379Z,4.82
2022-07-27T07:24:38.847Z,4.80
2022-07-27T07:25:41.310Z,5.40
2022-07-27T07:26:43.993Z,3.73
2022-07-27T07:27:46.234Z,4.70
2022-07-27T07:28:49.518Z,4.90
2022-07-27T07:29:52.699Z,4.00
2022-07-27T07:30:55.755Z,4.91
2022-07-27T07:31:58.888Z,5.18
2022-07-27T07:33:01.452Z,5.40
2022-07-27T07:34:04.605Z,3.70
2022-07-27T07:35:08.851Z,4.00
2022-07-27T07:36:14.959Z,4.00
2022-07-27T07:37:18.149Z,5.20
2022-07-27T07:38:21.437Z,3.40
2022-07-27T07:39:30.787Z,4.40
2022-07-27T07:40:45.219Z,4.20
2022-07-27T07:41:36.193Z,5.00
2022-07-27T07:44:11.969Z,4.30
2022-07-27T07:45:15.333Z,3.00
2022-07-27T07:46:20.102Z,3.20
2022-07-27T07:47:23.639Z,2.50
2022-07-27T07:48:26.218Z,3.10
2022-07-27T07:49:39.168Z,4.10
2022-07-27T07:50:32.683Z,3.60
2022-07-27T07:51:36.055Z,3.00
2022-07-27T07:52:39.476Z,3.00
2022-07-27T07:53:42.051Z,4.40
2022-07-27T07:54:45.082Z,4.40
2022-07-27T07:55:47.701Z,3.80
2022-07-27T07:56:50.605Z,3.50
2022-07-27T07:57:53.227Z,0.90
2022-07-27T07:58:57.235Z,3.70
2022-07-27T08:00:00.071Z,2.80
2022-07-27T08:01:03.312Z,4.30
2022-07-27T08:02:06.810Z,3.10
2022-07-27T08:03:09.189Z,3.20
2022-07-27T08:04:11.457Z,5.50
2022-07-27T08:05:14.024Z,3.60
2022-07-27T08:06:18.752Z,4.10
2022-07-27T08:07:21.503Z,3.90
2022-07-27T08:08:24.788Z,4.09
2022-07-27T08:09:29.679Z,4.40
2022-07-27T08:10:32.965Z,3.90
2022-07-27T08:11:35.267Z,4.82
2022-07-27T08:12:39.827Z,3.40
2022-07-27T08:13:43.174Z,4.60
2022-07-27T08:14:45.631Z,4.80
2022-07-27T08:15:47.953Z,4.50
2022-07-27T08:16:50.971Z,3.90
2022-07-27T08:17:53.515Z,4.36
2022-07-27T08:18:55.768Z,3.50
2022-07-27T08:20:00.003Z,3.90
2022-07-27T08:21:03.526Z,4.90
2022-07-27T08:22:06.368Z,4.20
2022-07-27T08:23:08.734Z,5.60
2022-07-27T08:24:12.011Z,4.50
2022-07-27T08:25:15.344Z,4.80
2022-07-27T08:26:18.860Z,4.80
2022-07-27T08:27:21.352Z,3.40
2022-07-27T08:28:23.643Z,2.90
2022-07-27T08:29:36.558Z,3.90
2022-07-27T08:30:32.333Z,5.30
2022-07-27T08:31:52.319Z,3.20
2022-07-27T08:34:01.810Z,4.80
2022-07-27T08:35:04.971Z,3.80
2022-07-27T08:36:07.997Z,3.40
2022-07-27T08:37:15.227Z,3.80
2022-07-27T08:38:15.172Z,4.60
2022-07-27T08:39:52.338Z,4.30
2022-07-27T08:40:41.701Z,4.10
2022-07-27T08:41:28.102Z,3.80
2022-07-27T08:42:31.560Z,4.20
2022-07-27T08:43:34.771Z,4.90
2022-07-27T08:45:55.851Z,4.00
2022-07-27T08:46:59.908Z,4.70
2022-07-27T08:48:02.656Z,3.90
2022-07-27T08:49:06.593Z,4.40
2022-07-27T08:50:12.527Z,4.40
2022-07-27T08:51:14.731Z,4.00
2022-07-27T08:52:17.002Z,4.70
2022-07-27T08:53:19.893Z,3.73
2022-07-27T08:54:22.937Z,5.10
2022-07-27T08:55:25.331Z,4.30
2022-07-27T08:56:27.897Z,5.10
2022-07-27T08:57:30.765Z,4.10
2022-07-27T08:58:33.160Z,5.70
2022-07-27T08:59:35.703Z,5.00
2022-07-27T09:00:41.140Z,6.00
2022-07-27T09:01:45.594Z,5.70
2022-07-27T09:02:48.242Z,4.90
2022-07-27T09:03:51.349Z,4.30
2022-07-27T09:04:54.587Z,4.30
2022-07-27T09:05:57.792Z,3.40
2022-07-27T09:07:00.382Z,5.10
2022-07-27T09:08:09.752Z,4.20
2022-07-27T09:09:13.629Z,5.20
2022-07-27T09:10:32.190Z,4.80
2022-07-27T09:11:34.995Z,4.90
2022-07-27T09:12:38.680Z,5.27
2022-07-27T09:13:41.286Z,4.60
2022-07-27T09:14:44.196Z,4.80
2022-07-27T09:16:16.400Z,4.20
2022-07-27T09:17:45.764Z,4.90
2022-07-27T09:17:59.616Z,4.40
2022-07-27T09:20:19.282Z,5.40
2022-07-27T09:21:23.788Z,3.30
2022-07-27T09:22:53.180Z,4.60
2022-07-27T09:25:38.760Z,4.50
2022-07-27T09:26:33.793Z,4.80
2022-07-27T09:27:33.108Z,4.70
2022-07-27T09:28:35.614Z,5.80
2022-07-27T09:29:38.502Z,6.27
2022-07-27T09:30:43.803Z,5.80
2022-07-27T09:31:49.943Z,4.70
2022-07-27T09:32:57.947Z,4.80
2022-07-27T09:34:01.707Z,5.00
2022-07-27T09:35:18.234Z,5.40
2022-07-27T09:36:24.401Z,5.50
2022-07-27T09:37:27.248Z,1.90
2022-07-27T09:38:30.320Z,4.80
2022-07-27T09:39:32.875Z,5.60
2022-07-27T09:40:35.508Z,5.00
2022-07-27T09:41:42.223Z,5.00
2022-07-27T09:43:09.116Z,5.20
2022-07-27T09:44:59.673Z,5.20
2022-07-27T09:46:05.711Z,3.10
2022-07-27T09:48:39.333Z,5.60
2022-07-27T09:49:42.353Z,5.10
2022-07-27T09:51:01.928Z,5.00
2022-07-27T09:53:41.345Z,5.40
2022-07-27T09:54:18.660Z,4.60
2022-07-27T09:55:21.456Z,3.70
2022-07-27T09:56:30.274Z,4.50
2022-07-27T09:57:53.413Z,4.90
2022-07-27T10:00:11.116Z,4.50
2022-07-27T10:01:22.548Z,4.80
2022-07-27T10:02:25.861Z,2.90
2022-07-27T10:03:29.583Z,4.50
2022-07-27T10:04:32.700Z,5.80
2022-07-27T10:05:35.864Z,4.70
2022-07-27T10:07:00.285Z,4.10
2022-07-27T10:07:44.153Z,4.50
2022-07-27T10:08:48.381Z,4.80
2022-07-27T10:09:51.640Z,5.30
2022-07-27T10:10:54.559Z,5.55
2022-07-27T10:11:57.390Z,6.20
2022-07-27T10:12:59.754Z,5.40
2022-07-27T10:14:03.243Z,5.50
2022-07-27T10:15:08.005Z,4.90
2022-07-27T10:17:25.466Z,4.30
2022-07-27T10:18:55.845Z,4.10
2022-07-27T10:19:59.960Z,5.50
2022-07-27T10:21:06.973Z,4.60
2022-07-27T10:22:10.652Z,4.90
2022-07-27T10:23:27.864Z,4.90
2022-07-27T10:24:31.572Z,5.60
2022-07-27T10:25:37.869Z,4.10
2022-07-27T10:26:41.143Z,5.60
2022-07-27T10:27:46.040Z,5.00
2022-07-27T10:28:51.147Z,5.90
2022-07-27T10:29:54.537Z,4.90
2022-07-27T10:31:14.737Z,4.64
2022-07-27T10:33:47.194Z,4.80
2022-07-27T10:34:49.959Z,4.60
2022-07-27T10:35:52.323Z,3.82
2022-07-27T10:36:55.408Z,2.70
2022-07-27T10:38:09.520Z,4.90
2022-07-27T10:39:13.318Z,3.20
2022-07-27T10:40:19.123Z,5.40
2022-07-27T10:41:40.697Z,4.10
2022-07-27T10:42:44.200Z,4.20
2022-07-27T10:43:46.447Z,5.10
2022-07-27T10:44:58.739Z,5.50
2022-07-27T10:46:03.056Z,4.50
2022-07-27T10:47:05.603Z,4.50
2022-07-27T10:48:08.111Z,6.10
2022-07-27T10:50:30.201Z,5.50
2022-07-27T10:51:36.002Z,4.80
2022-07-27T10:52:43.225Z,5.10
2022-07-27T10:54:53.635Z,5.70
2022-07-27T10:55:55.118Z,5.50
2022-07-27T10:56:58.711Z,5.60
2022-07-27T10:58:04.865Z,4.60
2022-07-27T10:59:07.369Z,4.70
2022-07-27T11:00:16.330Z,4.82
2022-07-27T11:01:15.862Z,3.70
2022-07-27T11:02:19.735Z,5.30
2022-07-27T11:03:23.963Z,5.20
2022-07-27T11:04:27.782Z,4.50
2022-07-27T11:05:59.078Z,4.80
2022-07-27T11:07:04.709Z,4.10
2022-07-27T11:07:46.374Z,4.00
2022-07-27T11:09:08.520Z,5.10
2022-07-27T11:10:09.186Z,5.00
2022-07-27T11:11:00.279Z,5.60
2022-07-27T11:12:07.154Z,3.90
2022-07-27T11:13:10.807Z,5.30
2022-07-27T11:14:13.803Z,3.80
2022-07-27T11:15:18.711Z,5.10
2022-07-27T11:16:25.869Z,4.70
2022-07-27T11:19:56.753Z,6.00
2022-07-27T11:21:26.188Z,5.40
2022-07-27T11:23:51.647Z,6.30
2022-07-27T11:24:51.612Z,5.70
2022-07-27T11:25:59.240Z,6.10
2022-07-27T11:27:02.194Z,5.10
2022-07-27T11:28:07.354Z,6.10
2022-07-27T11:29:12.207Z,5.60
2022-07-27T11:30:27.771Z,4.70
2022-07-27T11:31:54.218Z,5.80
2022-07-27T11:32:36.846Z,6.00
2022-07-27T11:33:58.044Z,5.50
2022-07-27T11:35:03.821Z,5.40
2022-07-27T11:36:07.294Z,6.10
2022-07-27T11:37:14.701Z,6.60
2022-07-27T11:38:17.118Z,6.40
2022-07-27T11:39:54.235Z,5.00
2022-07-27T11:41:55.875Z,5.90
2022-07-27T11:42:39.410Z,4.30
2022-07-27T11:43:45.561Z,4.00
2022-07-27T11:44:47.816Z,4.60
2022-07-27T11:45:51.534Z,5.60
2022-07-27T11:46:57.395Z,5.20
2022-07-27T11:47:59.581Z,4.40
2022-07-27T11:49:07.063Z,5.10
2022-07-27T11:50:09.871Z,4.90
2022-07-27T11:51:15.560Z,5.00
2022-07-27T11:52:18.070Z,5.50
2022-07-27T11:53:20.392Z,4.00
2022-07-27T11:54:31.255Z,4.80
2022-07-27T11:55:33.790Z,4.80
2022-07-27T11:56:40.097Z,4.50
2022-07-27T11:57:42.639Z,4.50
2022-07-27T12:00:13.756Z,5.80
2022-07-27T12:01:34.165Z,5.40
2022-07-27T12:02:37.066Z,4.90
2022-07-27T12:03:46.998Z,5.50
2022-07-27T12:04:45.732Z,3.80
2022-07-27T12:05:53.985Z,4.80
2022-07-27T12:07:21.534Z,5.50
2022-07-27T12:08:24.704Z,5.50
2022-07-27T12:09:27.458Z,5.00
2022-07-27T12:10:35.895Z,5.00
2022-07-27T12:11:55.940Z,4.80
2022-07-27T12:12:59.594Z,5.80
2022-07-27T12:14:05.591Z,5.00
2022-07-27T12:15:44.276Z,4.60
2022-07-27T12:16:21.471Z,6.00
2022-07-27T12:17:36.955Z,4.50
2022-07-27T12:18:43.853Z,5.90
2022-07-27T12:19:51.524Z,6.10
2022-07-27T12:20:54.292Z,4.80
2022-07-27T12:21:56.465Z,6.50
2022-07-27T12:23:05.908Z,5.60
2022-07-27T12:24:09.784Z,4.30
2022-07-27T12:25:24.909Z,3.50
2022-07-27T12:26:30.112Z,5.10
2022-07-27T12:27:33.135Z,5.90
2022-07-27T12:28:35.647Z,5.90
2022-07-27T12:30:00.877Z,5.00
2022-07-27T12:31:03.301Z,6.00
2022-07-27T12:32:05.897Z,5.64
2022-07-27T12:33:28.348Z,5.70
2022-07-27T12:34:35.976Z,5.20
2022-07-27T12:35:46.276Z,4.60
2022-07-27T12:36:50.089Z,5.30
2022-07-27T12:39:26.348Z,5.60
2022-07-27T12:40:30.654Z,6.00
2022-07-27T12:41:33.417Z,5.40
2022-07-27T12:42:35.996Z,4.60
2022-07-27T12:43:39.231Z,6.09
2022-07-27T12:44:44.171Z,5.00
2022-07-27T12:45:48.458Z,5.30
2022-07-27T12:50:46.619Z,5.40
2022-07-27T12:51:49.052Z,5.60
2022-07-27T12:52:52.234Z,3.70
2022-07-27T12:53:54.903Z,3.80
2022-07-27T12:54:58.350Z,3.90
2022-07-27T12:57:46.379Z,3.90
2022-07-27T12:58:22.850Z,4.20
2022-07-27T12:59:26.067Z,3.10
2022-07-27T13:00:33.705Z,3.80
2022-07-27T13:01:35.344Z,3.10
2022-07-27T13:02:38.652Z,3.90
2022-07-27T13:03:40.955Z,3.20
2022-07-27T13:04:43.305Z,3.00
2022-07-27T13:05:45.770Z,4.20
2022-07-27T13:06:49.662Z,4.20
2022-07-27T13:07:52.332Z,3.00
2022-07-27T13:08:55.928Z,4.00
2022-07-27T13:10:01.828Z,3.00
2022-07-27T13:11:03.925Z,4.00
2022-07-27T13:12:07.842Z,3.40
2022-07-27T13:13:10.610Z,3.40
2022-07-27T13:14:13.007Z,3.82
2022-07-27T13:15:15.500Z,3.10
2022-07-27T13:16:19.708Z,3.00
2022-07-27T13:17:22.113Z,3.50
2022-07-27T13:18:25.302Z,3.80
2022-07-27T13:19:27.745Z,3.10
2022-07-27T13:20:31.332Z,3.10
2022-07-27T13:21:34.623Z,4.50
2022-07-27T13:22:38.362Z,3.18
2022-07-27T13:23:41.623Z,2.30
2022-07-27T13:24:45.007Z,3.00
2022-07-27T13:25:49.803Z,4.20
2022-07-27T13:26:52.363Z,3.40
2022-07-27T13:27:54.735Z,4.50
2022-07-27T13:28:56.991Z,4.10
2022-07-27T13:29:59.971Z,2.90
2022-07-27T13:31:03.022Z,4.70
2022-07-27T13:32:06.292Z,3.30
2022-07-27T13:33:08.890Z,2.90
2022-07-27T13:34:11.362Z,2.80
2022-07-27T13:35:13.834Z,2.90
2022-07-27T13:36:16.905Z,3.70
2022-07-27T13:37:19.878Z,3.60
2022-07-27T13:38:23.263Z,3.45
2022-07-27T13:39:25.707Z,2.60
2022-07-27T13:40:31.882Z,4.00
2022-07-27T13:41:36.684Z,2.50
2022-07-27T13:42:40.317Z,4.10
2022-07-27T13:43:43.612Z,4.60
2022-07-27T13:45:51.638Z,2.50
2022-07-27T13:46:54.439Z,3.40
2022-07-27T13:47:56.774Z,2.60
2022-07-27T13:49:00.467Z,3.60
2022-07-27T13:50:05.056Z,2.70
2022-07-27T13:51:07.547Z,2.40
2022-07-27T13:52:10.861Z,3.36
2022-07-27T13:53:15.584Z,3.10
2022-07-27T13:54:17.644Z,4.00
2022-07-27T13:55:23.525Z,3.20
2022-07-27T13:56:24.641Z,4.20
2022-07-27T13:57:26.971Z,4.50
2022-07-27T13:58:29.542Z,4.20
2022-07-27T13:59:32.079Z,4.60
2022-07-27T14:00:35.631Z,4.80
2022-07-27T14:01:40.465Z,4.20
2022-07-27T14:02:45.445Z,4.50
2022-07-27T14:03:49.131Z,4.10
2022-07-27T14:04:52.315Z,4.70
2022-07-27T14:05:55.101Z,4.40
2022-07-27T14:06:57.832Z,4.27
2022-07-27T14:08:00.429Z,5.00
2022-07-27T14:09:04.933Z,2.90
2022-07-27T14:10:09.340Z,5.20
2022-07-27T14:11:12.723Z,5.20
2022-07-27T14:12:14.997Z,4.60
2022-07-27T14:13:21.781Z,5.00
2022-07-27T14:14:26.838Z,4.70
2022-07-27T14:15:29.451Z,4.20
2022-07-27T14:16:32.278Z,6.20
2022-07-27T14:17:34.884Z,3.60
2022-07-27T14:18:38.319Z,4.60
2022-07-27T14:19:40.713Z,4.50
2022-07-27T14:20:44.430Z,4.30
2022-07-27T14:21:46.742Z,5.00
2022-07-27T14:22:49.201Z,5.30
2022-07-27T14:23:51.621Z,4.20
2022-07-27T14:24:53.879Z,5.10
2022-07-27T14:25:58.114Z,3.70
2022-07-27T14:27:01.103Z,3.70
2022-07-27T14:28:03.936Z,2.90
2022-07-27T14:29:06.920Z,4.82
2022-07-27T14:30:11.012Z,4.60
2022-07-27T14:31:13.665Z,2.80
2022-07-27T14:32:17.573Z,3.18
2022-07-27T14:33:20.351Z,4.10
2022-07-27T14:34:22.831Z,4.20
2022-07-27T14:35:26.346Z,2.60
2022-07-27T14:36:29.071Z,2.60
2022-07-27T14:37:32.679Z,3.30
2022-07-27T14:38:36.158Z,3.50
2022-07-27T14:39:39.448Z,3.80
2022-07-27T14:40:42.623Z,3.80